Station Historical Data
Daily Summary for January 28, 2011 Units:  Metric    English   Both
« Previous Day
Next Day »
Daily Weekly Monthly Yearly Custom
  High: Low: Average:
Temperature: 12.2 °C 4.8 °C 8.7 °C
Dew Point: 0.4 °C -0.9 °C -0.4 °C
Humidity: 68% 42% 54%
Wind Speed: 17.7km/h 0km/h 3.9km/h
Wind Gust: 22.5km/h - -
Wind- - SW
Pressure: 1015.1 hPa 1012.4 hPa -
Precipitation: 0 mm    
Historical Graphs
 
 
Tabular Data for January 28, 2011
Time Temperature Dew Point Pressure Wind Wind Speed Wind Gust Humidity Rainfall Rate (Hourly) Conditions
13:28 10.3 °C 0.1 °C 1013.1 hPa West 6.4 km/h 6.4 km/h 49% 0 mm
13:29 10.5 °C -0.1 °C 1013.1 hPa SW 9.7 km/h 9.7 km/h 48% 0 mm
13:30 10.5 °C -0.3 °C 1012.8 hPa SW 4.8 km/h 9.7 km/h 47% 0 mm
13:32 10.5 °C -0.3 °C 1012.8 hPa West 4.8 km/h 9.7 km/h 47% 0 mm
13:33 10.5 °C -0.1 °C 1012.8 hPa West 11.3 km/h 11.3 km/h 48% 0 mm
13:37 10.5 °C -0.6 °C 1012.8 hPa NW 16.1 km/h 16.1 km/h 46% 0 mm
13:38 10.4 °C -0.7 °C 1012.8 hPa WNW 12.9 km/h 16.1 km/h 46% 0 mm
13:42 10.6 °C -0.3 °C 1012.8 hPa SW 12.9 km/h 16.1 km/h 47% 0 mm
13:43 10.6 °C -0.3 °C 1012.8 hPa WSW 17.7 km/h 17.7 km/h 47% 0 mm
13:48 10.6 °C -0.3 °C 1012.8 hPa WSW 12.9 km/h 17.7 km/h 47% 0 mm
13:49 10.6 °C -0.6 °C 1013.1 hPa WSW 12.9 km/h 17.7 km/h 46% 0 mm
13:53 10.6 °C -0.9 °C 1012.8 hPa WNW 16.1 km/h 17.7 km/h 45% 0 mm
13:54 10.6 °C -0.9 °C 1012.8 hPa WNW 12.9 km/h 17.7 km/h 45% 0 mm
13:55 10.6 °C -0.9 °C 1012.8 hPa WNW 12.9 km/h 17.7 km/h 45% 0 mm
13:58 10.7 °C -0.7 °C 1012.8 hPa NW 8 km/h 16.1 km/h 45% 0 mm
13:59 10.7 °C -0.7 °C 1012.8 hPa WNW 6.4 km/h 16.1 km/h 45% 0 mm
14:00 10.8 °C -0.7 °C 1012.8 hPa SW 3.2 km/h 16.1 km/h 45% 0 mm
14:03 11 °C -0.5 °C 1012.8 hPa West 4.8 km/h 14.5 km/h 45% 0 mm
14:04 11 °C -0.5 °C 1012.8 hPa West 4.8 km/h 14.5 km/h 45% 0 mm
14:09 11.3 °C 0.4 °C 1012.8 hPa West 9.7 km/h 14.5 km/h 47% 0 mm
14:11 11.2 °C -0.9 °C 1012.8 hPa WNW 3.2 km/h 14.5 km/h 43% 0 mm
14:16 11.2 °C -0.9 °C 1012.8 hPa WNW 3.2 km/h 14.5 km/h 43% 0 mm
14:21 11.3 °C -0.2 °C 1012.8 hPa WNW 6.4 km/h 12.9 km/h 45% 0 mm
14:26 11.4 °C -0.7 °C 1012.8 hPa NW 12.9 km/h 12.9 km/h 43% 0 mm
14:27 11.3 °C -0.5 °C 1012.8 hPa NW 4.8 km/h 12.9 km/h 44% 0 mm
14:30 11.3 °C -0.5 °C 1012.4 hPa WNW 9.7 km/h 12.9 km/h 44% 0 mm
14:31 11.3 °C -0.5 °C 1012.4 hPa WNW 14.5 km/h 14.5 km/h 44% 0 mm
14:32 11.3 °C -0.5 °C 1012.4 hPa NNW 12.9 km/h 14.5 km/h 44% 0 mm
14:33 11.3 °C -0.5 °C 1012.4 hPa WSW 9.7 km/h 14.5 km/h 44% 0 mm
14:37 11.2 °C -0.6 °C 1012.4 hPa WNW 8 km/h 14.5 km/h 44% 0 mm
14:39 11.2 °C -0.6 °C 1012.4 hPa West 14.5 km/h 14.5 km/h 44% 0 mm
14:40 11.2 °C -0.6 °C 1012.8 hPa West 8 km/h 14.5 km/h 44% 0 mm
14:43 11.3 °C -0.6 °C 1012.4 hPa WSW 4.8 km/h 14.5 km/h 44% 0 mm
14:45 11.2 °C -0.6 °C 1012.4 hPa SW 4.8 km/h 14.5 km/h 44% 0 mm
14:48 11.6 °C 0.1 °C 1012.8 hPa SW 8 km/h 11.3 km/h 45% 0 mm
14:49 11.6 °C 0.1 °C 1012.8 hPa SW 8 km/h 11.3 km/h 45% 0 mm
14:54 11.5 °C -0.3 °C 1012.8 hPa SSW 3.2 km/h 11.3 km/h 44% 0 mm
14:55 11.6 °C 0.1 °C 1012.4 hPa WSW 12.9 km/h 12.9 km/h 45% 0 mm
14:59 11.6 °C -0.2 °C 1012.8 hPa WNW 6.4 km/h 12.9 km/h 44% 0 mm
15:00 11.6 °C -0.6 °C 1012.8 hPa WNW 6.4 km/h 12.9 km/h 43% 0 mm
15:04 11.7 °C -0.4 °C 1012.8 hPa WSW 8 km/h 11.3 km/h 43% 0 mm
15:09 11.6 °C -0.6 °C 1012.8 hPa West 3.2 km/h 12.9 km/h 43% 0 mm
15:10 11.6 °C -0.2 °C 1012.8 hPa SW 3.2 km/h 12.9 km/h 44% 0 mm
15:14 11.7 °C 0.2 °C 1012.8 hPa SSE 4.8 km/h 11.3 km/h 45% 0 mm
15:15 11.8 °C 0 °C 1012.8 hPa SW 8 km/h 11.3 km/h 44% 0 mm
15:20 11.9 °C 0.4 °C 1012.8 hPa NW 9.7 km/h 22.5 km/h 45% 0 mm
15:21 11.9 °C -0.2 °C 1012.8 hPa WNW 6.4 km/h 22.5 km/h 43% 0 mm
15:25 11.9 °C -0.2 °C 1012.8 hPa West 6.4 km/h 22.5 km/h 43% 0 mm
15:26 11.9 °C -0.2 °C 1012.8 hPa West 9.7 km/h 22.5 km/h 43% 0 mm
15:28 11.8 °C -0.7 °C 1012.8 hPa West 6.4 km/h 12.9 km/h 42% 0 mm
15:30 11.7 °C -0.4 °C 1012.8 hPa WNW 12.9 km/h 12.9 km/h 43% 0 mm
15:31 11.7 °C -0.4 °C 1012.8 hPa WNW 9.7 km/h 12.9 km/h 43% 0 mm
15:34 11.6 °C -0.6 °C 1012.8 hPa NW 8 km/h 14.5 km/h 43% 0 mm
15:35 11.6 °C -0.2 °C 1012.8 hPa WNW 6.4 km/h 14.5 km/h 44% 0 mm
15:36 11.6 °C -0.2 °C 1012.8 hPa West 3.2 km/h 14.5 km/h 44% 0 mm
15:41 11.8 °C -0.4 °C 1012.8 hPa WSW 3.2 km/h 11.3 km/h 43% 0 mm
15:42 11.8 °C -0.4 °C 1012.8 hPa WSW 3.2 km/h 11.3 km/h 43% 0 mm
15:47 11.8 °C -0.3 °C 1012.8 hPa West 12.9 km/h 12.9 km/h 43% 0 mm
15:48 11.8 °C -0.3 °C 1012.8 hPa West 9.7 km/h 12.9 km/h 43% 0 mm
15:52 11.8 °C -0.1 °C 1012.8 hPa West 8 km/h 12.9 km/h 44% 0 mm
15:53 11.8 °C -0.4 °C 1012.8 hPa SW 9.7 km/h 12.9 km/h 43% 0 mm
15:54 11.8 °C -0.1 °C 1012.8 hPa WSW 6.4 km/h 12.9 km/h 44% 0 mm
15:58 11.9 °C 0 °C 1012.8 hPa SSW 6.4 km/h 9.7 km/h 44% 0 mm
15:59 11.9 °C 0.1 °C 1012.8 hPa West 8 km/h 11.3 km/h 44% 0 mm
16:03 12 °C -0.5 °C 1012.8 hPa WSW 4.8 km/h 11.3 km/h 42% 0 mm
16:08 11.9 °C -0.6 °C 1013.1 hPa WSW 6.4 km/h 12.9 km/h 42% 0 mm
16:09 12 °C 0.1 °C 1013.1 hPa WSW 12.9 km/h 17.7 km/h 44% 0 mm
16:13 12 °C -0.2 °C 1013.1 hPa West 6.4 km/h 17.7 km/h 43% 0 mm
16:14 12.1 °C -0.1 °C 1013.1 hPa WSW 11.3 km/h 17.7 km/h 43% 0 mm
16:18 12.1 °C -0.1 °C 1013.1 hPa SW 8 km/h 11.3 km/h 43% 0 mm
16:19 12.1 °C -0.1 °C 1013.1 hPa SW 8 km/h 11.3 km/h 43% 0 mm
16:20 12.1 °C -0.1 °C 1013.1 hPa SW 6.4 km/h 11.3 km/h 43% 0 mm
16:24 12.2 °C -0.1 °C 1013.1 hPa WNW 12.9 km/h 12.9 km/h 43% 0 mm
16:29 11.9 °C -0.2 °C 1013.1 hPa WNW 6.4 km/h 14.5 km/h 43% 0 mm
16:30 11.9 °C -0.2 °C 1013.1 hPa West 8 km/h 14.5 km/h 43% 0 mm
16:35 11.9 °C -0.3 °C 1013.1 hPa WNW 3.2 km/h 11.3 km/h 43% 0 mm
16:36 11.9 °C -0.6 °C 1013.1 hPa West 4.8 km/h 11.3 km/h 42% 0 mm
16:40 11.9 °C -0.6 °C 1013.1 hPa WNW 3.2 km/h 6.4 km/h 42% 0 mm
16:45 11.8 °C -0.7 °C 1013.1 hPa WSW 11.3 km/h 11.3 km/h 42% 0 mm
16:50 11.8 °C -0.7 °C 1013.1 hPa WSW 9.7 km/h 12.9 km/h 42% 0 mm
16:51 11.8 °C -0.7 °C 1013.1 hPa WSW 6.4 km/h 12.9 km/h 42% 0 mm
16:56 11.8 °C -0.7 °C 1013.1 hPa SW 12.9 km/h 14.5 km/h 42% 0 mm
16:57 11.8 °C -0.7 °C 1013.1 hPa WSW 11.3 km/h 14.5 km/h 42% 0 mm
17:00 11.8 °C -0.7 °C 1013.4 hPa WNW 4.8 km/h 12.9 km/h 42% 0 mm
17:01 11.8 °C -0.7 °C 1013.4 hPa WNW 4.8 km/h 12.9 km/h 42% 0 mm
17:02 11.8 °C -0.7 °C 1013.1 hPa West 4.8 km/h 11.3 km/h 42% 0 mm
17:07 11.8 °C -0.7 °C 1013.4 hPa West 4.8 km/h 11.3 km/h 42% 0 mm
17:12 11.8 °C -0.3 °C 1013.4 hPa West 4.8 km/h 8 km/h 43% 0 mm
17:13 11.8 °C 0 °C 1013.4 hPa West 4.8 km/h 8 km/h 44% 0 mm
17:18 11.8 °C -0.4 °C 1013.4 hPa WNW 3.2 km/h 8 km/h 43% 0 mm
17:24 11.7 °C -0.5 °C 1013.4 hPa WSW 4.8 km/h 9.7 km/h 43% 0 mm
17:29 11.6 °C -0.6 °C 1013.4 hPa WNW 6.4 km/h 9.7 km/h 43% 0 mm
17:30 11.5 °C -0.6 °C 1013.4 hPa WSW 8 km/h 9.7 km/h 43% 0 mm
17:34 11.4 °C -0.7 °C 1013.4 hPa WNW 4.8 km/h 9.7 km/h 43% 0 mm
17:36 11.3 °C -0.8 °C 1013.4 hPa WNW 4.8 km/h 9.7 km/h 43% 0 mm
17:39 11.3 °C -0.8 °C 1013.8 hPa West 4.8 km/h 9.7 km/h 43% 0 mm
17:44 11.2 °C -0.9 °C 1013.8 hPa WSW 4.8 km/h 6.4 km/h 43% 0 mm
17:49 11.1 °C -0.7 °C 1013.8 hPa West 4.8 km/h 6.4 km/h 44% 0 mm
17:54 10.9 °C -0.8 °C 1013.8 hPa West 6.4 km/h 6.4 km/h 44% 0 mm
17:57 10.9 °C -0.9 °C 1013.8 hPa West 3.2 km/h 6.4 km/h 44% 0 mm
17:59 10.8 °C -0.9 °C 1013.8 hPa West 3.2 km/h 6.4 km/h 44% 0 mm
18:00 10.8 °C -0.6 °C 1013.8 hPa West 3.2 km/h 6.4 km/h 45% 0 mm
18:02 10.8 °C -0.7 °C 1013.8 hPa West 1.6 km/h 4.8 km/h 45% 0 mm
18:04 10.7 °C -0.8 °C 1013.8 hPa WSW 1.6 km/h 4.8 km/h 45% 0 mm
18:05 10.7 °C -0.8 °C 1013.8 hPa WSW 1.6 km/h 4.8 km/h 45% 0 mm
18:07 10.6 °C -0.6 °C 1013.8 hPa WSW 1.6 km/h 4.8 km/h 46% 0 mm
18:12 10.2 °C -0.9 °C 1013.8 hPa WSW 3.2 km/h 3.2 km/h 46% 0 mm
18:17 9.9 °C -0.8 °C 1013.8 hPa Calm   3.2 km/h 47% 0 mm
18:18 9.9 °C -0.6 °C 1013.8 hPa WSW 1.6 km/h 3.2 km/h 48% 0 mm
18:22 9.6 °C -0.6 °C 1014.1 hPa WSW 3.2 km/h 3.2 km/h 49% 0 mm
18:23 9.6 °C -0.6 °C 1014.1 hPa WSW 3.2 km/h 3.2 km/h 49% 0 mm
18:28 9.2 °C -0.7 °C 1014.1 hPa WSW 1.6 km/h 3.2 km/h 50% 0 mm
18:29 9.2 °C -0.7 °C 1014.1 hPa WSW 1.6 km/h 3.2 km/h 50% 0 mm
18:30 9.1 °C -0.5 °C 1014.1 hPa Calm   3.2 km/h 51% 0 mm
18:32 9.1 °C -0.5 °C 1014.1 hPa WSW 1.6 km/h 1.6 km/h 51% 0 mm
18:33 9.1 °C -0.6 °C 1014.1 hPa WSW 1.6 km/h 1.6 km/h 51% 0 mm
18:34 9.1 °C -0.6 °C 1014.1 hPa WSW 1.6 km/h 1.6 km/h 51% 0 mm
18:37 9 °C -0.6 °C 1014.1 hPa Calm   1.6 km/h 51% 0 mm
18:39 8.9 °C -0.7 °C 1014.1 hPa WSW 1.6 km/h 1.6 km/h 51% 0 mm
18:40 8.9 °C -0.7 °C 1014.1 hPa WSW 1.6 km/h 1.6 km/h 51% 0 mm
18:43 8.9 °C -0.4 °C 1014.1 hPa Calm   1.6 km/h 52% 0 mm
18:44 8.8 °C -0.6 °C 1014.1 hPa Calm   1.6 km/h 52% 0 mm
18:48 8.7 °C -0.6 °C 1014.1 hPa Calm     52% 0 mm
18:53 8.5 °C -0.6 °C 1014.1 hPa Calm   1.6 km/h 53% 0 mm
18:54 8.4 °C -0.6 °C 1014.4 hPa Calm   1.6 km/h 53% 0 mm
18:58 8.4 °C -0.6 °C 1014.4 hPa Calm   1.6 km/h 53% 0 mm
18:59 8.4 °C -0.6 °C 1014.4 hPa Calm   1.6 km/h 53% 0 mm
19:00 8.3 °C -0.7 °C 1014.4 hPa WSW 1.6 km/h 1.6 km/h 53% 0 mm
19:04 8.2 °C -0.6 °C 1014.4 hPa Calm   1.6 km/h 54% 0 mm
19:09 8.1 °C -0.4 °C 1014.4 hPa Calm   1.6 km/h 55% 0 mm
19:14 7.8 °C -0.4 °C 1014.4 hPa WSW 1.6 km/h 1.6 km/h 56% 0 mm
19:19 7.6 °C -0.6 °C 1014.4 hPa WSW 1.6 km/h 1.6 km/h 56% 0 mm
19:24 7.6 °C -0.3 °C 1014.4 hPa Calm   1.6 km/h 57% 0 mm
19:25 7.6 °C -0.3 °C 1014.4 hPa Calm   1.6 km/h 57% 0 mm
19:30 7.6 °C -0.4 °C 1014.4 hPa South 1.6 km/h 3.2 km/h 57% 0 mm
19:31 7.6 °C -0.4 °C 1014.4 hPa SSE 1.6 km/h 3.2 km/h 57% 0 mm
19:34 7.6 °C -0.4 °C 1014.4 hPa SSE 1.6 km/h 3.2 km/h 57% 0 mm
19:36 7.4 °C -0.5 °C 1014.4 hPa SSE 1.6 km/h 3.2 km/h 57% 0 mm
19:37 7.4 °C -0.5 °C 1014.4 hPa SSE 1.6 km/h 3.2 km/h 57% 0 mm
19:38 7.3 °C -0.4 °C 1014.4 hPa SSE 1.6 km/h 3.2 km/h 58% 0 mm
19:39 7.3 °C -0.4 °C 1014.4 hPa SSE 1.6 km/h 1.6 km/h 58% 0 mm
19:43 7.2 °C -0.3 °C 1014.8 hPa Calm   1.6 km/h 59% 0 mm
19:44 7.2 °C -0.3 °C 1014.8 hPa Calm   1.6 km/h 59% 0 mm
19:45 7.1 °C -0.3 °C 1014.8 hPa Calm   1.6 km/h 59% 0 mm
19:49 7.1 °C -0.4 °C 1014.8 hPa Calm   1.6 km/h 59% 0 mm
19:50 7.1 °C -0.4 °C 1014.8 hPa South 1.6 km/h 1.6 km/h 59% 0 mm
19:53 7.1 °C -0.4 °C 1014.8 hPa Calm   1.6 km/h 59% 0 mm
19:54 7 °C -0.4 °C 1014.8 hPa Calm   1.6 km/h 59% 0 mm
19:55 6.9 °C -0.5 °C 1014.8 hPa Calm   1.6 km/h 59% 0 mm
19:57 6.9 °C -0.3 °C 1014.8 hPa South 1.6 km/h 1.6 km/h 60% 0 mm
19:59 6.8 °C -0.4 °C 1014.8 hPa Calm   1.6 km/h 60% 0 mm
20:00 6.8 °C -0.4 °C 1014.8 hPa Calm   1.6 km/h 60% 0 mm
20:02 6.7 °C -0.6 °C 1014.8 hPa Calm   1.6 km/h 60% 0 mm
20:06 6.5 °C -0.5 °C 1014.8 hPa Calm   1.6 km/h 61% 0 mm
20:07 6.4 °C -0.6 °C 1014.8 hPa Calm   1.6 km/h 61% 0 mm
20:09 6.4 °C -0.6 °C 1014.8 hPa Calm   1.6 km/h 61% 0 mm
20:11 6.3 °C -0.4 °C 1014.8 hPa Calm     62% 0 mm
20:14 6.3 °C -0.4 °C 1014.8 hPa Calm   1.6 km/h 62% 0 mm
20:17 6.3 °C -0.4 °C 1014.8 hPa Calm   1.6 km/h 62% 0 mm
20:20 6.3 °C -0.4 °C 1014.8 hPa Calm   1.6 km/h 62% 0 mm
20:22 6.3 °C -0.4 °C 1014.8 hPa Calm     62% 0 mm
20:25 6.2 °C -0.5 °C 1014.8 hPa Calm     62% 0 mm
20:27 6.1 °C -0.4 °C 1014.8 hPa Calm     63% 0 mm
20:28 6.1 °C -0.4 °C 1014.8 hPa Calm     63% 0 mm
20:30 6.1 °C -0.4 °C 1014.8 hPa Calm     63% 0 mm
20:32 6 °C -0.5 °C 1014.8 hPa Calm     63% 0 mm
20:34 5.9 °C -0.6 °C 1014.8 hPa Calm     63% 0 mm
20:35 5.9 °C -0.4 °C 1014.8 hPa Calm     64% 0 mm
20:38 5.8 °C -0.5 °C 1014.8 hPa Calm     64% 0 mm
20:39 5.7 °C -0.6 °C 1014.8 hPa Calm     64% 0 mm
20:41 5.7 °C -0.6 °C 1014.8 hPa Calm     64% 0 mm
20:45 5.8 °C -0.4 °C 1015.1 hPa Calm     64% 0 mm
20:46 5.9 °C -0.4 °C 1014.8 hPa Calm     64% 0 mm
20:50 6 °C -0.3 °C 1015.1 hPa South 1.6 km/h 1.6 km/h 64% 0 mm
20:51 6.1 °C -0.4 °C 1015.1 hPa Calm   1.6 km/h 63% 0 mm
20:52 6.1 °C -0.4 °C 1015.1 hPa Calm   1.6 km/h 63% 0 mm
20:56 6.1 °C -0.4 °C 1015.1 hPa Calm   1.6 km/h 63% 0 mm
20:57 6.2 °C -0.3 °C 1015.1 hPa Calm   1.6 km/h 63% 0 mm
21:00 6.2 °C -0.3 °C 1015.1 hPa Calm   1.6 km/h 63% 0 mm
21:01 6.2 °C -0.3 °C 1015.1 hPa Calm   1.6 km/h 63% 0 mm
21:02 6.2 °C -0.3 °C 1015.1 hPa Calm     63% 0 mm
21:07 6.3 °C -0.4 °C 1014.8 hPa Calm     62% 0 mm
21:08 6.3 °C -0.4 °C 1014.8 hPa Calm     62% 0 mm
21:13 6.5 °C -0.3 °C 1015.1 hPa Calm     62% 0 mm
21:18 6.6 °C -0.4 °C 1014.8 hPa Calm     61% 0 mm
21:19 6.7 °C -0.3 °C 1015.1 hPa Calm     61% 0 mm
21:23 6.7 °C -0.3 °C 1014.8 hPa Calm     61% 0 mm
21:28 6.7 °C -0.3 °C 1014.8 hPa SSE 1.6 km/h 1.6 km/h 61% 0 mm
21:29 6.7 °C -0.3 °C 1014.8 hPa SSE 1.6 km/h 1.6 km/h 61% 0 mm
21:30 6.7 °C -0.3 °C 1014.8 hPa Calm   1.6 km/h 61% 0 mm
21:34 6.8 °C -0.2 °C 1014.8 hPa Calm   1.6 km/h 61% 0 mm
21:35 6.8 °C -0.2 °C 1014.8 hPa SSE 1.6 km/h 1.6 km/h 61% 0 mm
21:39 6.8 °C -0.2 °C 1014.8 hPa ESE 1.6 km/h 3.2 km/h 61% 0 mm
21:40 6.8 °C -0.2 °C 1014.8 hPa ESE 1.6 km/h 3.2 km/h 61% 0 mm
21:41 6.8 °C -0.2 °C 1014.8 hPa ESE 1.6 km/h 3.2 km/h 61% 0 mm
21:46 6.9 °C -0.3 °C 1014.8 hPa ESE 1.6 km/h 1.6 km/h 60% 0 mm
21:52 6.8 °C -0.4 °C 1014.8 hPa ESE 1.6 km/h 1.6 km/h 60% 0 mm
21:57 6.8 °C -0.2 °C 1014.8 hPa ESE 1.6 km/h 1.6 km/h 61% 0 mm
21:58 6.8 °C -0.2 °C 1014.8 hPa ESE 1.6 km/h 1.6 km/h 61% 0 mm
22:00 6.7 °C -0.3 °C 1014.8 hPa ESE 1.6 km/h 1.6 km/h 61% 0 mm
22:03 6.7 °C -0.3 °C 1014.8 hPa SE 1.6 km/h 1.6 km/h 61% 0 mm
22:04 6.6 °C -0.4 °C 1014.8 hPa SE 1.6 km/h 1.6 km/h 61% 0 mm
22:09 6.4 °C -0.3 °C 1014.8 hPa SE 1.6 km/h 1.6 km/h 62% 0 mm
22:10 6.3 °C -0.4 °C 1014.8 hPa SE 1.6 km/h 1.6 km/h 62% 0 mm
22:14 6.2 °C -0.3 °C 1014.8 hPa SE 1.6 km/h 1.6 km/h 63% 0 mm
22:19 6.3 °C -0.2 °C 1014.8 hPa Calm   1.6 km/h 63% 0 mm
22:24 6.3 °C -0.4 °C 1014.8 hPa SE 1.6 km/h 1.6 km/h 62% 0 mm
22:25 6.3 °C -0.4 °C 1014.8 hPa SE 1.6 km/h 1.6 km/h 62% 0 mm
22:26 6.3 °C -0.4 °C 1014.8 hPa Calm   1.6 km/h 62% 0 mm
22:29 6.1 °C -0.4 °C 1014.8 hPa SE 1.6 km/h 1.6 km/h 63% 0 mm
22:30 6.1 °C -0.4 °C 1014.8 hPa SE 1.6 km/h 1.6 km/h 63% 0 mm
22:31 5.9 °C -0.6 °C 1014.8 hPa SE 1.6 km/h 1.6 km/h 63% 0 mm
22:33 5.8 °C -0.5 °C 1014.8 hPa SE 1.6 km/h 1.6 km/h 64% 0 mm
22:36 5.6 °C -0.4 °C 1014.8 hPa SE 1.6 km/h 1.6 km/h 65% 0 mm
22:38 5.6 °C -0.4 °C 1014.8 hPa SE 1.6 km/h 1.6 km/h 65% 0 mm
22:43 5.6 °C -0.5 °C 1014.8 hPa SE 1.6 km/h 1.6 km/h 65% 0 mm
22:44 5.6 °C -0.5 °C 1014.4 hPa SE 1.6 km/h 1.6 km/h 65% 0 mm
22:49 5.6 °C -0.4 °C 1014.8 hPa SE 1.6 km/h 3.2 km/h 65% 0 mm
22:50 5.6 °C -0.4 °C 1014.8 hPa SE 1.6 km/h 3.2 km/h 65% 0 mm
22:54 5.6 °C -0.4 °C 1014.8 hPa SE 1.6 km/h 1.6 km/h 65% 0 mm
22:55 5.6 °C -0.5 °C 1014.4 hPa SE 1.6 km/h 1.6 km/h 65% 0 mm
22:56 5.5 °C -0.6 °C 1014.8 hPa SE 1.6 km/h 3.2 km/h 65% 0 mm
22:59 5.4 °C -0.4 °C 1014.4 hPa SE 3.2 km/h 3.2 km/h 66% 0 mm
23:00 5.4 °C -0.4 °C 1014.4 hPa SE 3.2 km/h 3.2 km/h 66% 0 mm
23:04 5.5 °C -0.3 °C 1014.4 hPa SE 3.2 km/h 3.2 km/h 66% 0 mm
23:05 5.5 °C -0.3 °C 1014.4 hPa SE 3.2 km/h 3.2 km/h 66% 0 mm
23:10 5.5 °C -0.3 °C 1014.4 hPa SE 3.2 km/h 3.2 km/h 66% 0 mm
23:11 5.5 °C -0.3 °C 1014.4 hPa SE 3.2 km/h 3.2 km/h 66% 0 mm
23:16 5.4 °C -0.4 °C 1014.8 hPa SE 3.2 km/h 3.2 km/h 66% 0 mm
23:21 5.3 °C -0.5 °C 1014.8 hPa SE 3.2 km/h 3.2 km/h 66% 0 mm
23:22 5.3 °C -0.5 °C 1014.8 hPa SE 3.2 km/h 3.2 km/h 66% 0 mm
23:23 5.3 °C -0.5 °C 1014.8 hPa SE 3.2 km/h 3.2 km/h 66% 0 mm
23:26 5.4 °C -0.4 °C 1014.8 hPa SE 3.2 km/h 3.2 km/h 66% 0 mm
23:28 5.4 °C -0.4 °C 1014.8 hPa SE 3.2 km/h 3.2 km/h 66% 0 mm
23:29 5.4 °C -0.4 °C 1014.8 hPa SE 3.2 km/h 3.2 km/h 66% 0 mm
23:30 5.4 °C -0.4 °C 1014.8 hPa SE 3.2 km/h 3.2 km/h 66% 0 mm
23:32 5.4 °C -0.4 °C 1014.8 hPa SE 3.2 km/h 3.2 km/h 66% 0 mm
23:33 5.4 °C -0.4 °C 1014.8 hPa SE 3.2 km/h 3.2 km/h 66% 0 mm
23:34 5.4 °C -0.4 °C 1014.8 hPa SE 3.2 km/h 3.2 km/h 66% 0 mm
23:35 5.4 °C -0.4 °C 1014.8 hPa SE 3.2 km/h 3.2 km/h 66% 0 mm
23:37 5.4 °C -0.4 °C 1014.8 hPa SE 3.2 km/h 3.2 km/h 66% 0 mm
23:40 5.3 °C -0.5 °C 1014.8 hPa SE 3.2 km/h 3.2 km/h 66% 0 mm
23:43 5.3 °C -0.6 °C 1014.8 hPa SE 3.2 km/h 3.2 km/h 66% 0 mm
23:45 5.2 °C -0.6 °C 1014.8 hPa SE 3.2 km/h 3.2 km/h 66% 0 mm
23:48 5.1 °C -0.5 °C 1014.8 hPa SE 3.2 km/h 3.2 km/h 67% 0 mm
23:53 5 °C -0.6 °C 1014.8 hPa SE 3.2 km/h 3.2 km/h 67% 0 mm
23:54 5 °C -0.6 °C 1014.8 hPa SE 3.2 km/h 3.2 km/h 67% 0 mm
23:59 4.8 °C -0.6 °C 1014.8 hPa SE 3.2 km/h 3.2 km/h 68% 0 mm
Compliments of Weather Underground